Etusivu
METAR-TAF:

METAR-TAF

Lentoasemat :

Torsbyn, Ruotsi

Leveyspiiri: 60-09-17N, Pituuspiiri: 12-59-40E, korkeus merenpinnasta: 120 m

Tämänhetkinen sää

Tämä raportti tehtiin 39 minuuttia sitten, kello 09.20 UTC
Tuuli 4 kn lännestä/luoteesta
Lämpötila 3°C
Kosteus 93%
Ilmanpaine 1009 hPa
Näkyvyys: 3800 m
utua

METAR: ESST 170920Z AUTO 29004KT 3800 BR OVC005/// 03/02 Q1009

Aika: 10:59 (09:59 UTC)


TAF: puuttuu

Säähavainnot ja -ennusteet yli 4000 lentoasemalta (METAR- ja TAF-raportit).

Käytössä olevat sääasemat on merkitty karttaan keltaisilla ja punaisilla pisteillä.

Aseta hiiri pisteen päälle nähdäksesi sääaseman nimen.

Klikkaa sitten nähdäksesi säähavainnot ja -ennusteet.

Kartan vaihtaminen: klikkaa mustalla rastilla varustettuja vihreitä pisteitä, niin voit zoomata sisään; viivalla varustettua vihreää pistettä, niin voit zoomata ulos tai vihreitä nuolia, niin pääset viereisille kartoille.


METAR-TAF: